sensor_id;sensor_type;location;lat;lon;timestamp;P1;durP1;ratioP1;P2;durP2;ratioP2
21729;SDS011;11027;51.030;13.812;2022-11-20T00:00:54;33.85;;;17.38;;
21729;SDS011;11027;51.030;13.812;2022-11-20T00:03:20;35.03;;;18.50;;
21729;SDS011;11027;51.030;13.812;2022-11-20T00:05:46;34.03;;;17.63;;
21729;SDS011;11027;51.030;13.812;2022-11-20T00:08:12;35.05;;;18.25;;
21729;SDS011;11027;51.030;13.812;2022-11-20T00:10:38;34.50;;;18.83;;
21729;SDS011;11027;51.030;13.812;2022-11-20T00:13:04;28.60;;;17.40;;
21729;SDS011;11027;51.030;13.812;2022-11-20T00:15:29;35.50;;;18.38;;
21729;SDS011;11027;51.030;13.812;2022-11-20T00:17:54;31.77;;;17.00;;
21729;SDS011;11027;51.030;13.812;2022-11-20T00:20:20;32.00;;;17.20;;
21729;SDS011;11027;51.030;13.812;2022-11-20T00:22:45;33.33;;;18.00;;
21729;SDS011;11027;51.030;13.812;2022-11-20T00:25:10;30.00;;;16.10;;
21729;SDS011;11027;51.030;13.812;2022-11-20T00:27:36;27.13;;;15.48;;
21729;SDS011;11027;51.030;13.812;2022-11-20T00:30:02;26.73;;;15.55;;
21729;SDS011;11027;51.030;13.812;2022-11-20T00:32:27;29.90;;;16.27;;
21729;SDS011;11027;51.030;13.812;2022-11-20T00:34:53;29.98;;;16.75;;
21729;SDS011;11027;51.030;13.812;2022-11-20T00:37:18;29.50;;;16.52;;
21729;SDS011;11027;51.030;13.812;2022-11-20T00:39:43;27.13;;;16.15;;
21729;SDS011;11027;51.030;13.812;2022-11-20T00:42:08;30.50;;;16.15;;
21729;SDS011;11027;51.030;13.812;2022-11-20T00:44:34;32.28;;;16.17;;
21729;SDS011;11027;51.030;13.812;2022-11-20T00:46:59;29.88;;;16.25;;
21729;SDS011;11027;51.030;13.812;2022-11-20T00:49:24;28.10;;;15.88;;
21729;SDS011;11027;51.030;13.812;2022-11-20T00:51:49;32.45;;;16.85;;
21729;SDS011;11027;51.030;13.812;2022-11-20T00:54:15;26.40;;;14.82;;
21729;SDS011;11027;51.030;13.812;2022-11-20T00:56:40;27.73;;;15.38;;
21729;SDS011;11027;51.030;13.812;2022-11-20T00:59:05;31.38;;;14.60;;
21729;SDS011;11027;51.030;13.812;2022-11-20T01:01:30;26.20;;;14.65;;
21729;SDS011;11027;51.030;13.812;2022-11-20T01:03:57;27.75;;;14.95;;
21729;SDS011;11027;51.030;13.812;2022-11-20T01:06:25;25.02;;;14.30;;
21729;SDS011;11027;51.030;13.812;2022-11-20T01:09:07;26.42;;;14.20;;
21729;SDS011;11027;51.030;13.812;2022-11-20T01:11:36;25.30;;;13.82;;
21729;SDS011;11027;51.030;13.812;2022-11-20T01:14:04;24.42;;;14.43;;
21729;SDS011;11027;51.030;13.812;2022-11-20T01:16:33;27.90;;;15.65;;
21729;SDS011;11027;51.030;13.812;2022-11-20T01:19:04;27.73;;;14.37;;
21729;SDS011;11027;51.030;13.812;2022-11-20T01:21:40;24.60;;;13.98;;
21729;SDS011;11027;51.030;13.812;2022-11-20T01:24:08;28.35;;;14.48;;
21729;SDS011;11027;51.030;13.812;2022-11-20T01:26:36;26.30;;;13.68;;
21729;SDS011;11027;51.030;13.812;2022-11-20T01:29:03;25.95;;;14.77;;
21729;SDS011;11027;51.030;13.812;2022-11-20T01:31:30;28.90;;;15.20;;
21729;SDS011;11027;51.030;13.812;2022-11-20T01:33:58;31.65;;;15.70;;
21729;SDS011;11027;51.030;13.812;2022-11-20T01:36:26;31.15;;;15.13;;
21729;SDS011;11027;51.030;13.812;2022-11-20T01:38:53;26.13;;;15.18;;
21729;SDS011;11027;51.030;13.812;2022-11-20T01:41:20;23.52;;;14.27;;
21729;SDS011;11027;51.030;13.812;2022-11-20T01:44:05;31.10;;;15.25;;
21729;SDS011;11027;51.030;13.812;2022-11-20T01:46:37;28.20;;;15.15;;
21729;SDS011;11027;51.030;13.812;2022-11-20T01:49:08;27.95;;;15.23;;
21729;SDS011;11027;51.030;13.812;2022-11-20T01:51:45;29.80;;;15.18;;
21729;SDS011;11027;51.030;13.812;2022-11-20T01:54:19;28.67;;;14.55;;
21729;SDS011;11027;51.030;13.812;2022-11-20T01:57:13;26.67;;;14.73;;
21729;SDS011;11027;51.030;13.812;2022-11-20T01:59:42;27.70;;;14.55;;
21729;SDS011;11027;51.030;13.812;2022-11-20T02:02:12;25.45;;;13.90;;
21729;SDS011;11027;51.030;13.812;2022-11-20T02:04:38;26.45;;;13.85;;
21729;SDS011;11027;51.030;13.812;2022-11-20T02:07:04;25.20;;;13.23;;
21729;SDS011;11027;51.030;13.812;2022-11-20T02:09:30;22.50;;;13.23;;
21729;SDS011;11027;51.030;13.812;2022-11-20T02:11:56;23.92;;;13.63;;
21729;SDS011;11027;51.030;13.812;2022-11-20T02:14:23;25.38;;;14.23;;
21729;SDS011;11027;51.030;13.812;2022-11-20T02:16:50;26.65;;;13.85;;
21729;SDS011;11027;51.030;13.812;2022-11-20T02:19:29;25.55;;;14.20;;
21729;SDS011;11027;51.030;13.812;2022-11-20T02:22:14;25.48;;;13.70;;
21729;SDS011;11027;51.030;13.812;2022-11-20T02:24:44;21.98;;;12.50;;
21729;SDS011;11027;51.030;13.812;2022-11-20T02:27:11;27.27;;;14.38;;
21729;SDS011;11027;51.030;13.812;2022-11-20T02:29:39;25.63;;;12.85;;
21729;SDS011;11027;51.030;13.812;2022-11-20T02:34:55;27.17;;;13.35;;
21729;SDS011;11027;51.030;13.812;2022-11-20T02:37:21;28.38;;;13.82;;
21729;SDS011;11027;51.030;13.812;2022-11-20T02:39:48;25.00;;;13.43;;
21729;SDS011;11027;51.030;13.812;2022-11-20T02:42:16;24.40;;;12.93;;
21729;SDS011;11027;51.030;13.812;2022-11-20T02:44:41;26.92;;;14.13;;
21729;SDS011;11027;51.030;13.812;2022-11-20T02:47:06;25.77;;;13.52;;
21729;SDS011;11027;51.030;13.812;2022-11-20T02:49:33;23.80;;;13.70;;
21729;SDS011;11027;51.030;13.812;2022-11-20T02:51:58;24.77;;;13.20;;
21729;SDS011;11027;51.030;13.812;2022-11-20T02:54:24;25.05;;;13.75;;
21729;SDS011;11027;51.030;13.812;2022-11-20T02:56:49;23.83;;;13.85;;
21729;SDS011;11027;51.030;13.812;2022-11-20T02:59:14;24.90;;;12.98;;
21729;SDS011;11027;51.030;13.812;2022-11-20T03:01:40;26.27;;;13.23;;
21729;SDS011;11027;51.030;13.812;2022-11-20T03:04:05;25.55;;;13.32;;
21729;SDS011;11027;51.030;13.812;2022-11-20T03:06:30;25.58;;;13.35;;
21729;SDS011;11027;51.030;13.812;2022-11-20T03:08:56;24.60;;;13.05;;
21729;SDS011;11027;51.030;13.812;2022-11-20T03:11:21;21.73;;;12.68;;
21729;SDS011;11027;51.030;13.812;2022-11-20T03:13:47;27.05;;;14.05;;
21729;SDS011;11027;51.030;13.812;2022-11-20T03:16:13;21.40;;;12.57;;
21729;SDS011;11027;51.030;13.812;2022-11-20T03:18:40;20.80;;;11.77;;
21729;SDS011;11027;51.030;13.812;2022-11-20T03:21:07;21.38;;;11.95;;
21729;SDS011;11027;51.030;13.812;2022-11-20T03:23:33;22.45;;;12.32;;
21729;SDS011;11027;51.030;13.812;2022-11-20T03:28:39;22.08;;;11.65;;
21729;SDS011;11027;51.030;13.812;2022-11-20T03:31:09;22.90;;;13.07;;
21729;SDS011;11027;51.030;13.812;2022-11-20T03:33:36;16.70;;;9.10;;
21729;SDS011;11027;51.030;13.812;2022-11-20T03:36:05;21.38;;;11.57;;
21729;SDS011;11027;51.030;13.812;2022-11-20T03:38:32;24.05;;;12.35;;
21729;SDS011;11027;51.030;13.812;2022-11-20T03:40:59;24.58;;;11.90;;
21729;SDS011;11027;51.030;13.812;2022-11-20T03:43:25;24.13;;;13.15;;
21729;SDS011;11027;51.030;13.812;2022-11-20T03:45:51;22.73;;;12.35;;
21729;SDS011;11027;51.030;13.812;2022-11-20T03:48:16;23.85;;;12.05;;
21729;SDS011;11027;51.030;13.812;2022-11-20T03:50:41;20.27;;;11.75;;
21729;SDS011;11027;51.030;13.812;2022-11-20T03:53:06;22.63;;;11.80;;
21729;SDS011;11027;51.030;13.812;2022-11-20T03:55:32;20.73;;;11.75;;
21729;SDS011;11027;51.030;13.812;2022-11-20T03:57:57;20.15;;;11.38;;
21729;SDS011;11027;51.030;13.812;2022-11-20T04:00:22;20.98;;;11.45;;
21729;SDS011;11027;51.030;13.812;2022-11-20T04:02:47;18.98;;;11.23;;
21729;SDS011;11027;51.030;13.812;2022-11-20T04:05:13;19.73;;;11.25;;
21729;SDS011;11027;51.030;13.812;2022-11-20T04:07:38;21.88;;;11.15;;
21729;SDS011;11027;51.030;13.812;2022-11-20T04:10:04;19.45;;;10.82;;
21729;SDS011;11027;51.030;13.812;2022-11-20T04:12:31;20.80;;;11.25;;
21729;SDS011;11027;51.030;13.812;2022-11-20T04:14:57;19.27;;;10.52;;
21729;SDS011;11027;51.030;13.812;2022-11-20T04:17:22;21.77;;;11.30;;
21729;SDS011;11027;51.030;13.812;2022-11-20T04:19:47;21.65;;;10.48;;
21729;SDS011;11027;51.030;13.812;2022-11-20T04:22:13;20.85;;;11.30;;
21729;SDS011;11027;51.030;13.812;2022-11-20T04:24:38;23.10;;;11.20;;
21729;SDS011;11027;51.030;13.812;2022-11-20T04:27:03;19.70;;;10.88;;
21729;SDS011;11027;51.030;13.812;2022-11-20T04:29:28;20.95;;;11.52;;
21729;SDS011;11027;51.030;13.812;2022-11-20T04:31:54;20.30;;;11.23;;
21729;SDS011;11027;51.030;13.812;2022-11-20T04:34:19;19.13;;;10.82;;
21729;SDS011;11027;51.030;13.812;2022-11-20T04:36:44;17.98;;;10.38;;
21729;SDS011;11027;51.030;13.812;2022-11-20T04:39:13;19.45;;;10.98;;
21729;SDS011;11027;51.030;13.812;2022-11-20T04:41:40;19.30;;;10.85;;
21729;SDS011;11027;51.030;13.812;2022-11-20T04:44:06;19.75;;;10.50;;
21729;SDS011;11027;51.030;13.812;2022-11-20T04:46:32;20.77;;;10.70;;
21729;SDS011;11027;51.030;13.812;2022-11-20T04:49:02;19.92;;;11.43;;
21729;SDS011;11027;51.030;13.812;2022-11-20T04:51:28;20.10;;;10.80;;
21729;SDS011;11027;51.030;13.812;2022-11-20T04:53:54;17.77;;;9.70;;
21729;SDS011;11027;51.030;13.812;2022-11-20T04:56:19;18.45;;;10.80;;
21729;SDS011;11027;51.030;13.812;2022-11-20T04:58:44;23.02;;;10.88;;
21729;SDS011;11027;51.030;13.812;2022-11-20T05:01:28;19.67;;;10.65;;
21729;SDS011;11027;51.030;13.812;2022-11-20T05:03:53;22.70;;;11.68;;
21729;SDS011;11027;51.030;13.812;2022-11-20T05:06:20;21.30;;;11.65;;
21729;SDS011;11027;51.030;13.812;2022-11-20T05:08:46;20.85;;;11.73;;
21729;SDS011;11027;51.030;13.812;2022-11-20T05:11:19;22.35;;;11.68;;
21729;SDS011;11027;51.030;13.812;2022-11-20T05:13:45;24.30;;;11.93;;
21729;SDS011;11027;51.030;13.812;2022-11-20T05:16:15;21.42;;;12.38;;
21729;SDS011;11027;51.030;13.812;2022-11-20T05:18:42;22.20;;;11.98;;
21729;SDS011;11027;51.030;13.812;2022-11-20T05:21:08;23.55;;;11.35;;
21729;SDS011;11027;51.030;13.812;2022-11-20T05:23:35;22.88;;;12.27;;
21729;SDS011;11027;51.030;13.812;2022-11-20T05:26:00;24.02;;;12.73;;
21729;SDS011;11027;51.030;13.812;2022-11-20T05:28:27;24.23;;;12.48;;
21729;SDS011;11027;51.030;13.812;2022-11-20T05:30:54;23.83;;;12.73;;
21729;SDS011;11027;51.030;13.812;2022-11-20T05:33:20;22.17;;;12.25;;
21729;SDS011;11027;51.030;13.812;2022-11-20T05:35:45;23.65;;;12.68;;
21729;SDS011;11027;51.030;13.812;2022-11-20T05:38:11;25.25;;;12.25;;
21729;SDS011;11027;51.030;13.812;2022-11-20T05:40:36;25.67;;;13.02;;
21729;SDS011;11027;51.030;13.812;2022-11-20T05:43:01;27.98;;;13.27;;
21729;SDS011;11027;51.030;13.812;2022-11-20T05:45:27;24.77;;;13.20;;
21729;SDS011;11027;51.030;13.812;2022-11-20T05:47:52;26.48;;;13.82;;
21729;SDS011;11027;51.030;13.812;2022-11-20T05:50:18;27.58;;;12.88;;
21729;SDS011;11027;51.030;13.812;2022-11-20T05:52:43;24.98;;;13.43;;
21729;SDS011;11027;51.030;13.812;2022-11-20T05:55:08;27.50;;;13.10;;
21729;SDS011;11027;51.030;13.812;2022-11-20T05:57:34;26.27;;;14.05;;
21729;SDS011;11027;51.030;13.812;2022-11-20T05:59:59;26.17;;;13.00;;
21729;SDS011;11027;51.030;13.812;2022-11-20T06:02:25;26.95;;;13.73;;
21729;SDS011;11027;51.030;13.812;2022-11-20T06:04:50;27.38;;;13.52;;
21729;SDS011;11027;51.030;13.812;2022-11-20T06:07:16;23.58;;;12.45;;
21729;SDS011;11027;51.030;13.812;2022-11-20T06:09:41;24.95;;;12.35;;
21729;SDS011;11027;51.030;13.812;2022-11-20T06:12:06;25.27;;;12.65;;
21729;SDS011;11027;51.030;13.812;2022-11-20T06:14:32;26.73;;;13.07;;
21729;SDS011;11027;51.030;13.812;2022-11-20T06:16:58;24.00;;;12.35;;
21729;SDS011;11027;51.030;13.812;2022-11-20T06:19:23;24.33;;;13.02;;
21729;SDS011;11027;51.030;13.812;2022-11-20T06:21:48;24.67;;;12.95;;
21729;SDS011;11027;51.030;13.812;2022-11-20T06:24:14;25.45;;;13.02;;
21729;SDS011;11027;51.030;13.812;2022-11-20T06:26:39;28.00;;;13.15;;
21729;SDS011;11027;51.030;13.812;2022-11-20T06:29:05;26.30;;;13.27;;
21729;SDS011;11027;51.030;13.812;2022-11-20T06:31:30;25.65;;;13.35;;
21729;SDS011;11027;51.030;13.812;2022-11-20T06:33:59;24.13;;;13.55;;
21729;SDS011;11027;51.030;13.812;2022-11-20T06:36:25;22.88;;;12.65;;
21729;SDS011;11027;51.030;13.812;2022-11-20T06:38:50;24.13;;;12.85;;
21729;SDS011;11027;51.030;13.812;2022-11-20T06:41:17;22.63;;;11.90;;
21729;SDS011;11027;51.030;13.812;2022-11-20T06:43:44;22.85;;;11.90;;
21729;SDS011;11027;51.030;13.812;2022-11-20T06:46:10;23.35;;;11.93;;
21729;SDS011;11027;51.030;13.812;2022-11-20T06:48:37;24.10;;;11.65;;
21729;SDS011;11027;51.030;13.812;2022-11-20T06:51:03;22.17;;;11.65;;
21729;SDS011;11027;51.030;13.812;2022-11-20T06:53:29;23.63;;;11.70;;
21729;SDS011;11027;51.030;13.812;2022-11-20T06:55:55;23.25;;;11.70;;
21729;SDS011;11027;51.030;13.812;2022-11-20T06:58:22;19.98;;;11.18;;
21729;SDS011;11027;51.030;13.812;2022-11-20T07:00:48;23.30;;;11.70;;
21729;SDS011;11027;51.030;13.812;2022-11-20T07:03:13;21.05;;;11.73;;
21729;SDS011;11027;51.030;13.812;2022-11-20T07:05:39;25.40;;;12.65;;
21729;SDS011;11027;51.030;13.812;2022-11-20T07:08:05;25.45;;;13.32;;
21729;SDS011;11027;51.030;13.812;2022-11-20T07:10:30;25.25;;;13.95;;
21729;SDS011;11027;51.030;13.812;2022-11-20T07:12:56;26.25;;;13.77;;
21729;SDS011;11027;51.030;13.812;2022-11-20T07:15:22;24.40;;;13.23;;
21729;SDS011;11027;51.030;13.812;2022-11-20T07:17:49;26.83;;;13.50;;
21729;SDS011;11027;51.030;13.812;2022-11-20T07:20:14;28.48;;;13.45;;
21729;SDS011;11027;51.030;13.812;2022-11-20T07:22:40;29.20;;;14.57;;
21729;SDS011;11027;51.030;13.812;2022-11-20T07:25:06;23.25;;;13.63;;
21729;SDS011;11027;51.030;13.812;2022-11-20T07:27:32;31.55;;;15.27;;
21729;SDS011;11027;51.030;13.812;2022-11-20T07:29:58;43.28;;;21.98;;
21729;SDS011;11027;51.030;13.812;2022-11-20T07:32:23;32.90;;;16.88;;
21729;SDS011;11027;51.030;13.812;2022-11-20T07:34:49;28.00;;;14.93;;
21729;SDS011;11027;51.030;13.812;2022-11-20T07:37:14;29.95;;;15.23;;
21729;SDS011;11027;51.030;13.812;2022-11-20T07:39:40;31.95;;;16.13;;
21729;SDS011;11027;51.030;13.812;2022-11-20T07:42:06;31.25;;;17.08;;
21729;SDS011;11027;51.030;13.812;2022-11-20T07:44:32;33.10;;;17.10;;
21729;SDS011;11027;51.030;13.812;2022-11-20T07:46:57;36.45;;;18.02;;
21729;SDS011;11027;51.030;13.812;2022-11-20T07:49:23;40.80;;;19.27;;
21729;SDS011;11027;51.030;13.812;2022-11-20T07:51:49;36.50;;;18.90;;
21729;SDS011;11027;51.030;13.812;2022-11-20T07:54:15;36.47;;;18.13;;
21729;SDS011;11027;51.030;13.812;2022-11-20T07:56:41;40.10;;;19.50;;
21729;SDS011;11027;51.030;13.812;2022-11-20T07:59:06;36.88;;;19.38;;
21729;SDS011;11027;51.030;13.812;2022-11-20T08:01:31;38.45;;;18.13;;
21729;SDS011;11027;51.030;13.812;2022-11-20T08:03:57;37.92;;;19.20;;
21729;SDS011;11027;51.030;13.812;2022-11-20T08:06:22;34.88;;;20.02;;
21729;SDS011;11027;51.030;13.812;2022-11-20T08:08:49;38.75;;;19.50;;
21729;SDS011;11027;51.030;13.812;2022-11-20T08:11:14;42.20;;;22.13;;
21729;SDS011;11027;51.030;13.812;2022-11-20T08:13:58;40.60;;;20.50;;
21729;SDS011;11027;51.030;13.812;2022-11-20T08:19:09;43.67;;;22.02;;
21729;SDS011;11027;51.030;13.812;2022-11-20T08:21:34;41.30;;;20.20;;
21729;SDS011;11027;51.030;13.812;2022-11-20T08:24:00;42.67;;;21.77;;
21729;SDS011;11027;51.030;13.812;2022-11-20T08:26:25;44.13;;;22.63;;
21729;SDS011;11027;51.030;13.812;2022-11-20T08:28:57;40.80;;;22.05;;
21729;SDS011;11027;51.030;13.812;2022-11-20T08:31:23;41.78;;;21.88;;
21729;SDS011;11027;51.030;13.812;2022-11-20T08:33:50;45.92;;;23.10;;
21729;SDS011;11027;51.030;13.812;2022-11-20T08:36:15;44.15;;;21.02;;
21729;SDS011;11027;51.030;13.812;2022-11-20T08:38:40;42.15;;;21.90;;
21729;SDS011;11027;51.030;13.812;2022-11-20T08:41:06;54.70;;;26.15;;
21729;SDS011;11027;51.030;13.812;2022-11-20T08:43:50;54.28;;;25.17;;
21729;SDS011;11027;51.030;13.812;2022-11-20T08:46:17;49.25;;;23.52;;
21729;SDS011;11027;51.030;13.812;2022-11-20T08:48:43;46.10;;;24.42;;
21729;SDS011;11027;51.030;13.812;2022-11-20T08:51:09;41.42;;;22.40;;
21729;SDS011;11027;51.030;13.812;2022-11-20T08:53:36;42.58;;;21.65;;
21729;SDS011;11027;51.030;13.812;2022-11-20T08:56:01;46.33;;;22.42;;
21729;SDS011;11027;51.030;13.812;2022-11-20T08:58:26;41.58;;;21.92;;
21729;SDS011;11027;51.030;13.812;2022-11-20T09:00:52;42.25;;;22.00;;
21729;SDS011;11027;51.030;13.812;2022-11-20T09:03:18;42.67;;;22.33;;
21729;SDS011;11027;51.030;13.812;2022-11-20T09:05:43;41.03;;;21.55;;
21729;SDS011;11027;51.030;13.812;2022-11-20T09:08:08;42.85;;;20.92;;
21729;SDS011;11027;51.030;13.812;2022-11-20T09:10:34;40.13;;;21.70;;
21729;SDS011;11027;51.030;13.812;2022-11-20T09:13:00;37.85;;;20.77;;
21729;SDS011;11027;51.030;13.812;2022-11-20T09:15:26;38.85;;;20.90;;
21729;SDS011;11027;51.030;13.812;2022-11-20T09:20:17;37.85;;;20.95;;
21729;SDS011;11027;51.030;13.812;2022-11-20T09:22:43;37.83;;;21.02;;
21729;SDS011;11027;51.030;13.812;2022-11-20T09:25:09;39.55;;;20.27;;
21729;SDS011;11027;51.030;13.812;2022-11-20T09:27:34;42.60;;;21.02;;
21729;SDS011;11027;51.030;13.812;2022-11-20T09:30:00;33.55;;;19.10;;
21729;SDS011;11027;51.030;13.812;2022-11-20T09:32:26;34.53;;;19.20;;
21729;SDS011;11027;51.030;13.812;2022-11-20T09:34:51;31.85;;;17.13;;
21729;SDS011;11027;51.030;13.812;2022-11-20T09:37:16;30.45;;;17.08;;
21729;SDS011;11027;51.030;13.812;2022-11-20T09:39:41;31.80;;;16.65;;
21729;SDS011;11027;51.030;13.812;2022-11-20T09:44:57;31.15;;;16.70;;
21729;SDS011;11027;51.030;13.812;2022-11-20T09:47:48;28.40;;;16.13;;
21729;SDS011;11027;51.030;13.812;2022-11-20T09:50:19;26.85;;;15.02;;
21729;SDS011;11027;51.030;13.812;2022-11-20T09:53:12;29.10;;;15.57;;
21729;SDS011;11027;51.030;13.812;2022-11-20T09:55:45;26.33;;;15.40;;
21729;SDS011;11027;51.030;13.812;2022-11-20T09:58:54;42.75;;;23.33;;
21729;SDS011;11027;51.030;13.812;2022-11-20T10:01:12;29.95;;;16.33;;
21729;SDS011;11027;51.030;13.812;2022-11-20T10:04:00;25.63;;;14.50;;
21729;SDS011;11027;51.030;13.812;2022-11-20T10:06:37;25.45;;;14.23;;
21729;SDS011;11027;51.030;13.812;2022-11-20T10:11:46;22.67;;;13.27;;
21729;SDS011;11027;51.030;13.812;2022-11-20T10:14:25;23.15;;;13.18;;
21729;SDS011;11027;51.030;13.812;2022-11-20T10:22:35;22.15;;;12.23;;
21729;SDS011;11027;51.030;13.812;2022-11-20T10:25:13;26.25;;;14.27;;
21729;SDS011;11027;51.030;13.812;2022-11-20T10:31:00;23.30;;;12.60;;
21729;SDS011;11027;51.030;13.812;2022-11-20T10:33:29;23.85;;;12.32;;
21729;SDS011;11027;51.030;13.812;2022-11-20T10:36:05;42.20;;;22.25;;
21729;SDS011;11027;51.030;13.812;2022-11-20T10:38:50;39.40;;;21.38;;
21729;SDS011;11027;51.030;13.812;2022-11-20T10:41:23;25.92;;;14.75;;
21729;SDS011;11027;51.030;13.812;2022-11-20T10:43:54;19.83;;;10.95;;
21729;SDS011;11027;51.030;13.812;2022-11-20T10:46:23;24.38;;;13.70;;
21729;SDS011;11027;51.030;13.812;2022-11-20T10:48:50;22.67;;;13.18;;
21729;SDS011;11027;51.030;13.812;2022-11-20T10:51:30;20.63;;;12.52;;
21729;SDS011;11027;51.030;13.812;2022-11-20T10:56:52;17.73;;;11.02;;
21729;SDS011;11027;51.030;13.812;2022-11-20T10:59:27;18.13;;;10.52;;
21729;SDS011;11027;51.030;13.812;2022-11-20T11:02:19;16.63;;;11.02;;
21729;SDS011;11027;51.030;13.812;2022-11-20T11:04:47;17.65;;;10.95;;
21729;SDS011;11027;51.030;13.812;2022-11-20T11:07:27;18.50;;;11.05;;
21729;SDS011;11027;51.030;13.812;2022-11-20T11:09:59;16.55;;;9.85;;
21729;SDS011;11027;51.030;13.812;2022-11-20T11:12:25;16.63;;;10.75;;
21729;SDS011;11027;51.030;13.812;2022-11-20T11:14:52;24.88;;;15.27;;
21729;SDS011;11027;51.030;13.812;2022-11-20T11:17:21;35.58;;;20.15;;
21729;SDS011;11027;51.030;13.812;2022-11-20T11:20:00;24.25;;;14.35;;
21729;SDS011;11027;51.030;13.812;2022-11-20T11:22:47;18.55;;;10.20;;
21729;SDS011;11027;51.030;13.812;2022-11-20T11:27:48;17.25;;;10.52;;
21729;SDS011;11027;51.030;13.812;2022-11-20T11:30:15;16.25;;;10.07;;
21729;SDS011;11027;51.030;13.812;2022-11-20T11:32:42;17.88;;;10.65;;
21729;SDS011;11027;51.030;13.812;2022-11-20T11:37:47;16.65;;;10.05;;
21729;SDS011;11027;51.030;13.812;2022-11-20T11:40:14;17.70;;;10.07;;
21729;SDS011;11027;51.030;13.812;2022-11-20T11:42:41;15.02;;;9.05;;
21729;SDS011;11027;51.030;13.812;2022-11-20T11:45:27;16.15;;;9.73;;
21729;SDS011;11027;51.030;13.812;2022-11-20T11:47:54;15.50;;;9.55;;
21729;SDS011;11027;51.030;13.812;2022-11-20T11:50:23;16.05;;;9.90;;
21729;SDS011;11027;51.030;13.812;2022-11-20T11:55:33;15.73;;;9.75;;
21729;SDS011;11027;51.030;13.812;2022-11-20T11:58:06;15.50;;;9.50;;
21729;SDS011;11027;51.030;13.812;2022-11-20T12:00:36;15.90;;;9.30;;
21729;SDS011;11027;51.030;13.812;2022-11-20T12:03:12;12.43;;;8.40;;
21729;SDS011;11027;51.030;13.812;2022-11-20T12:05:47;13.82;;;8.90;;
21729;SDS011;11027;51.030;13.812;2022-11-20T12:08:32;11.63;;;7.65;;
21729;SDS011;11027;51.030;13.812;2022-11-20T12:13:48;9.82;;;6.20;;
21729;SDS011;11027;51.030;13.812;2022-11-20T12:16:20;8.45;;;5.30;;
21729;SDS011;11027;51.030;13.812;2022-11-20T12:18:50;8.10;;;6.03;;
21729;SDS011;11027;51.030;13.812;2022-11-20T12:21:20;10.30;;;6.90;;
21729;SDS011;11027;51.030;13.812;2022-11-20T12:29:20;9.90;;;6.85;;
21729;SDS011;11027;51.030;13.812;2022-11-20T12:34:44;10.38;;;7.00;;
21729;SDS011;11027;51.030;13.812;2022-11-20T12:37:19;10.98;;;7.38;;
21729;SDS011;11027;51.030;13.812;2022-11-20T12:40:23;10.35;;;6.50;;
21729;SDS011;11027;51.030;13.812;2022-11-20T12:48:54;14.88;;;8.88;;
21729;SDS011;11027;51.030;13.812;2022-11-20T12:51:30;15.23;;;9.18;;
21729;SDS011;11027;51.030;13.812;2022-11-20T12:54:15;12.82;;;8.60;;
21729;SDS011;11027;51.030;13.812;2022-11-20T13:02:33;14.38;;;8.32;;
21729;SDS011;11027;51.030;13.812;2022-11-20T13:07:34;12.60;;;8.50;;
21729;SDS011;11027;51.030;13.812;2022-11-20T13:10:00;13.18;;;8.75;;
21729;SDS011;11027;51.030;13.812;2022-11-20T13:18:00;12.68;;;8.20;;
21729;SDS011;11027;51.030;13.812;2022-11-20T13:20:28;13.77;;;8.30;;
21729;SDS011;11027;51.030;13.812;2022-11-20T13:22:55;12.50;;;8.18;;
21729;SDS011;11027;51.030;13.812;2022-11-20T13:25:32;13.65;;;9.13;;
21729;SDS011;11027;51.030;13.812;2022-11-20T13:28:00;13.13;;;8.23;;
21729;SDS011;11027;51.030;13.812;2022-11-20T13:30:29;13.45;;;8.45;;
21729;SDS011;11027;51.030;13.812;2022-11-20T13:40:26;12.70;;;8.30;;
21729;SDS011;11027;51.030;13.812;2022-11-20T13:42:55;11.40;;;8.10;;
21729;SDS011;11027;51.030;13.812;2022-11-20T13:45:30;13.43;;;8.55;;
21729;SDS011;11027;51.030;13.812;2022-11-20T13:47:57;13.13;;;8.30;;
21729;SDS011;11027;51.030;13.812;2022-11-20T13:53:03;11.68;;;7.60;;
21729;SDS011;11027;51.030;13.812;2022-11-20T14:01:23;10.50;;;6.80;;
21729;SDS011;11027;51.030;13.812;2022-11-20T14:03:51;11.52;;;7.35;;
21729;SDS011;11027;51.030;13.812;2022-11-20T14:08:53;9.82;;;6.68;;
21729;SDS011;11027;51.030;13.812;2022-11-20T14:11:24;8.68;;;6.68;;
21729;SDS011;11027;51.030;13.812;2022-11-20T14:16:21;9.20;;;6.72;;
21729;SDS011;11027;51.030;13.812;2022-11-20T14:18:47;8.88;;;6.20;;
21729;SDS011;11027;51.030;13.812;2022-11-20T14:21:26;9.35;;;6.63;;
21729;SDS011;11027;51.030;13.812;2022-11-20T14:24:04;7.35;;;5.60;;
21729;SDS011;11027;51.030;13.812;2022-11-20T14:26:30;9.50;;;5.80;;
21729;SDS011;11027;51.030;13.812;2022-11-20T14:28:56;11.02;;;6.30;;
21729;SDS011;11027;51.030;13.812;2022-11-20T14:31:23;10.02;;;6.57;;
21729;SDS011;11027;51.030;13.812;2022-11-20T14:33:50;9.52;;;6.72;;
21729;SDS011;11027;51.030;13.812;2022-11-20T14:36:17;9.10;;;6.50;;
21729;SDS011;11027;51.030;13.812;2022-11-20T14:38:44;9.27;;;6.25;;
21729;SDS011;11027;51.030;13.812;2022-11-20T14:41:16;8.98;;;6.28;;
21729;SDS011;11027;51.030;13.812;2022-11-20T14:43:47;10.77;;;7.07;;
21729;SDS011;11027;51.030;13.812;2022-11-20T14:46:24;10.15;;;6.32;;
21729;SDS011;11027;51.030;13.812;2022-11-20T14:48:51;9.95;;;6.50;;
21729;SDS011;11027;51.030;13.812;2022-11-20T14:51:25;10.65;;;6.85;;
21729;SDS011;11027;51.030;13.812;2022-11-20T14:54:09;10.35;;;6.90;;
21729;SDS011;11027;51.030;13.812;2022-11-20T14:56:35;10.05;;;6.90;;
21729;SDS011;11027;51.030;13.812;2022-11-20T14:59:01;12.00;;;7.05;;
21729;SDS011;11027;51.030;13.812;2022-11-20T15:01:27;9.98;;;6.72;;
21729;SDS011;11027;51.030;13.812;2022-11-20T15:04:10;11.13;;;7.47;;
21729;SDS011;11027;51.030;13.812;2022-11-20T15:09:12;12.50;;;7.60;;
21729;SDS011;11027;51.030;13.812;2022-11-20T15:11:38;12.60;;;8.13;;
21729;SDS011;11027;51.030;13.812;2022-11-20T15:14:05;11.93;;;8.25;;
21729;SDS011;11027;51.030;13.812;2022-11-20T15:16:31;11.68;;;8.10;;
21729;SDS011;11027;51.030;13.812;2022-11-20T15:18:57;12.10;;;8.20;;
21729;SDS011;11027;51.030;13.812;2022-11-20T15:21:23;13.98;;;8.77;;
21729;SDS011;11027;51.030;13.812;2022-11-20T15:23:49;14.88;;;9.10;;
21729;SDS011;11027;51.030;13.812;2022-11-20T15:26:18;13.32;;;8.57;;
21729;SDS011;11027;51.030;13.812;2022-11-20T15:28:52;13.68;;;8.73;;
21729;SDS011;11027;51.030;13.812;2022-11-20T15:31:18;13.30;;;8.80;;
21729;SDS011;11027;51.030;13.812;2022-11-20T15:33:45;13.98;;;8.90;;
21729;SDS011;11027;51.030;13.812;2022-11-20T15:36:11;14.32;;;9.45;;
21729;SDS011;11027;51.030;13.812;2022-11-20T15:38:36;15.82;;;9.95;;
21729;SDS011;11027;51.030;13.812;2022-11-20T15:41:01;15.32;;;8.43;;
21729;SDS011;11027;51.030;13.812;2022-11-20T15:43:27;14.50;;;9.65;;
21729;SDS011;11027;51.030;13.812;2022-11-20T15:45:57;14.93;;;9.10;;
21729;SDS011;11027;51.030;13.812;2022-11-20T15:48:34;14.05;;;9.18;;
21729;SDS011;11027;51.030;13.812;2022-11-20T15:53:36;16.15;;;9.68;;